sensor_id;sensor_type;location;lat;lon;timestamp;P1;durP1;ratioP1;P2;durP2;ratioP2
44989;SDS011;30723;51.206;3.326;2022-07-29T00:01:13;5.28;;;2.30;;
44989;SDS011;30723;51.206;3.326;2022-07-29T00:03:41;4.43;;;1.65;;
44989;SDS011;30723;51.206;3.326;2022-07-29T00:06:07;9.68;;;2.00;;
44989;SDS011;30723;51.206;3.326;2022-07-29T00:08:33;5.68;;;2.13;;
44989;SDS011;30723;51.206;3.326;2022-07-29T00:11:00;8.23;;;1.80;;
44989;SDS011;30723;51.206;3.326;2022-07-29T00:13:27;5.78;;;2.08;;
44989;SDS011;30723;51.206;3.326;2022-07-29T00:15:54;1.75;;;1.40;;
44989;SDS011;30723;51.206;3.326;2022-07-29T00:18:20;6.10;;;1.63;;
44989;SDS011;30723;51.206;3.326;2022-07-29T00:20:45;5.25;;;1.95;;
44989;SDS011;30723;51.206;3.326;2022-07-29T00:23:12;3.53;;;1.90;;
44989;SDS011;30723;51.206;3.326;2022-07-29T00:25:38;11.55;;;2.22;;
44989;SDS011;30723;51.206;3.326;2022-07-29T00:28:04;5.00;;;2.17;;
44989;SDS011;30723;51.206;3.326;2022-07-29T00:30:30;5.72;;;2.08;;
44989;SDS011;30723;51.206;3.326;2022-07-29T00:32:57;3.70;;;1.80;;
44989;SDS011;30723;51.206;3.326;2022-07-29T00:35:22;4.45;;;2.20;;
44989;SDS011;30723;51.206;3.326;2022-07-29T00:38:07;7.80;;;2.58;;
44989;SDS011;30723;51.206;3.326;2022-07-29T00:40:33;2.25;;;1.80;;
44989;SDS011;30723;51.206;3.326;2022-07-29T00:42:59;6.38;;;2.20;;
44989;SDS011;30723;51.206;3.326;2022-07-29T00:45:27;6.78;;;1.90;;
44989;SDS011;30723;51.206;3.326;2022-07-29T00:47:55;7.30;;;2.33;;
44989;SDS011;30723;51.206;3.326;2022-07-29T00:50:22;4.28;;;2.60;;
44989;SDS011;30723;51.206;3.326;2022-07-29T00:52:48;4.05;;;2.00;;
44989;SDS011;30723;51.206;3.326;2022-07-29T00:55:18;4.47;;;2.22;;
44989;SDS011;30723;51.206;3.326;2022-07-29T00:57:45;5.03;;;2.25;;
44989;SDS011;30723;51.206;3.326;2022-07-29T01:00:14;4.30;;;1.80;;
44989;SDS011;30723;51.206;3.326;2022-07-29T01:02:42;5.97;;;2.28;;
44989;SDS011;30723;51.206;3.326;2022-07-29T01:05:10;5.57;;;1.90;;
44989;SDS011;30723;51.206;3.326;2022-07-29T01:07:37;4.32;;;2.00;;
44989;SDS011;30723;51.206;3.326;2022-07-29T01:10:07;4.47;;;1.98;;
44989;SDS011;30723;51.206;3.326;2022-07-29T01:12:35;5.53;;;1.98;;
44989;SDS011;30723;51.206;3.326;2022-07-29T01:15:04;3.35;;;2.03;;
44989;SDS011;30723;51.206;3.326;2022-07-29T01:17:39;5.28;;;2.00;;
44989;SDS011;30723;51.206;3.326;2022-07-29T01:32:26;3.92;;;1.88;;
44989;SDS011;30723;51.206;3.326;2022-07-29T01:38:08;5.87;;;2.03;;
44989;SDS011;30723;51.206;3.326;2022-07-29T01:40:54;8.77;;;2.40;;
44989;SDS011;30723;51.206;3.326;2022-07-29T01:43:47;5.38;;;1.95;;
44989;SDS011;30723;51.206;3.326;2022-07-29T01:46:37;4.50;;;2.20;;
44989;SDS011;30723;51.206;3.326;2022-07-29T01:49:27;4.45;;;2.20;;
44989;SDS011;30723;51.206;3.326;2022-07-29T01:52:20;5.28;;;2.15;;
44989;SDS011;30723;51.206;3.326;2022-07-29T01:55:07;6.57;;;2.35;;
44989;SDS011;30723;51.206;3.326;2022-07-29T01:57:53;7.35;;;2.15;;
44989;SDS011;30723;51.206;3.326;2022-07-29T02:00:24;4.25;;;2.10;;
44989;SDS011;30723;51.206;3.326;2022-07-29T02:03:11;4.03;;;2.15;;
44989;SDS011;30723;51.206;3.326;2022-07-29T02:05:40;7.25;;;2.35;;
44989;SDS011;30723;51.206;3.326;2022-07-29T02:08:26;6.85;;;2.10;;
44989;SDS011;30723;51.206;3.326;2022-07-29T02:11:12;4.85;;;1.83;;
44989;SDS011;30723;51.206;3.326;2022-07-29T02:13:59;5.80;;;2.10;;
44989;SDS011;30723;51.206;3.326;2022-07-29T02:16:26;5.07;;;2.13;;
44989;SDS011;30723;51.206;3.326;2022-07-29T02:19:13;4.15;;;2.40;;
44989;SDS011;30723;51.206;3.326;2022-07-29T02:21:39;4.07;;;2.25;;
44989;SDS011;30723;51.206;3.326;2022-07-29T02:24:25;3.20;;;2.10;;
44989;SDS011;30723;51.206;3.326;2022-07-29T02:26:53;5.28;;;2.30;;
44989;SDS011;30723;51.206;3.326;2022-07-29T02:29:39;2.92;;;2.00;;
44989;SDS011;30723;51.206;3.326;2022-07-29T02:32:26;6.28;;;2.30;;
44989;SDS011;30723;51.206;3.326;2022-07-29T02:35:14;4.68;;;2.40;;
44989;SDS011;30723;51.206;3.326;2022-07-29T02:37:42;3.42;;;2.20;;
44989;SDS011;30723;51.206;3.326;2022-07-29T02:40:31;3.17;;;1.95;;
44989;SDS011;30723;51.206;3.326;2022-07-29T02:42:59;3.05;;;1.95;;
44989;SDS011;30723;51.206;3.326;2022-07-29T02:45:29;4.50;;;2.15;;
44989;SDS011;30723;51.206;3.326;2022-07-29T02:47:56;3.08;;;2.00;;
44989;SDS011;30723;51.206;3.326;2022-07-29T02:50:44;3.22;;;2.58;;
44989;SDS011;30723;51.206;3.326;2022-07-29T02:53:18;5.85;;;2.65;;
44989;SDS011;30723;51.206;3.326;2022-07-29T02:55:55;3.08;;;2.15;;
44989;SDS011;30723;51.206;3.326;2022-07-29T02:58:56;8.40;;;2.50;;
44989;SDS011;30723;51.206;3.326;2022-07-29T03:01:40;3.85;;;2.25;;
44989;SDS011;30723;51.206;3.326;2022-07-29T03:04:08;5.38;;;2.67;;
44989;SDS011;30723;51.206;3.326;2022-07-29T03:06:36;3.35;;;2.65;;
44989;SDS011;30723;51.206;3.326;2022-07-29T03:09:08;7.03;;;2.45;;
44989;SDS011;30723;51.206;3.326;2022-07-29T03:11:36;5.10;;;2.72;;
44989;SDS011;30723;51.206;3.326;2022-07-29T03:14:05;5.05;;;2.40;;
44989;SDS011;30723;51.206;3.326;2022-07-29T03:16:33;5.15;;;3.10;;
44989;SDS011;30723;51.206;3.326;2022-07-29T03:19:01;3.00;;;2.65;;
44989;SDS011;30723;51.206;3.326;2022-07-29T03:21:30;6.40;;;2.90;;
44989;SDS011;30723;51.206;3.326;2022-07-29T03:23:56;3.38;;;2.60;;
44989;SDS011;30723;51.206;3.326;2022-07-29T03:26:23;8.48;;;2.90;;
44989;SDS011;30723;51.206;3.326;2022-07-29T03:28:50;6.65;;;2.90;;
44989;SDS011;30723;51.206;3.326;2022-07-29T03:31:17;5.47;;;2.85;;
44989;SDS011;30723;51.206;3.326;2022-07-29T03:33:44;3.17;;;2.55;;
44989;SDS011;30723;51.206;3.326;2022-07-29T03:36:10;9.77;;;2.40;;
44989;SDS011;30723;51.206;3.326;2022-07-29T03:38:36;5.25;;;2.78;;
44989;SDS011;30723;51.206;3.326;2022-07-29T03:41:05;4.60;;;2.78;;
44989;SDS011;30723;51.206;3.326;2022-07-29T03:43:36;5.88;;;2.90;;
44989;SDS011;30723;51.206;3.326;2022-07-29T03:46:06;4.03;;;2.87;;
44989;SDS011;30723;51.206;3.326;2022-07-29T03:48:36;4.97;;;2.95;;
44989;SDS011;30723;51.206;3.326;2022-07-29T03:51:07;5.00;;;2.50;;
44989;SDS011;30723;51.206;3.326;2022-07-29T03:53:34;7.88;;;2.78;;
44989;SDS011;30723;51.206;3.326;2022-07-29T03:56:07;3.67;;;2.90;;
44989;SDS011;30723;51.206;3.326;2022-07-29T03:58:37;7.70;;;3.20;;
44989;SDS011;30723;51.206;3.326;2022-07-29T04:01:05;6.70;;;2.80;;
44989;SDS011;30723;51.206;3.326;2022-07-29T04:03:31;6.82;;;3.22;;
44989;SDS011;30723;51.206;3.326;2022-07-29T04:06:03;6.53;;;2.90;;
44989;SDS011;30723;51.206;3.326;2022-07-29T04:08:31;5.20;;;3.20;;
44989;SDS011;30723;51.206;3.326;2022-07-29T04:10:59;5.22;;;3.22;;
44989;SDS011;30723;51.206;3.326;2022-07-29T04:13:26;12.15;;;3.22;;
44989;SDS011;30723;51.206;3.326;2022-07-29T04:15:52;7.47;;;2.92;;
44989;SDS011;30723;51.206;3.326;2022-07-29T04:18:18;4.47;;;2.97;;
44989;SDS011;30723;51.206;3.326;2022-07-29T04:20:45;10.05;;;3.10;;
44989;SDS011;30723;51.206;3.326;2022-07-29T04:23:12;12.18;;;3.47;;
44989;SDS011;30723;51.206;3.326;2022-07-29T04:25:39;4.90;;;3.25;;
44989;SDS011;30723;51.206;3.326;2022-07-29T04:28:06;6.22;;;3.72;;
44989;SDS011;30723;51.206;3.326;2022-07-29T04:30:34;5.72;;;2.92;;
44989;SDS011;30723;51.206;3.326;2022-07-29T04:33:03;5.65;;;3.03;;
44989;SDS011;30723;51.206;3.326;2022-07-29T04:35:33;8.85;;;3.40;;
44989;SDS011;30723;51.206;3.326;2022-07-29T04:38:01;6.68;;;3.33;;
44989;SDS011;30723;51.206;3.326;2022-07-29T04:40:29;6.10;;;3.22;;
44989;SDS011;30723;51.206;3.326;2022-07-29T04:42:57;4.57;;;3.40;;
44989;SDS011;30723;51.206;3.326;2022-07-29T04:45:25;5.70;;;3.38;;
44989;SDS011;30723;51.206;3.326;2022-07-29T04:47:52;10.23;;;3.22;;
44989;SDS011;30723;51.206;3.326;2022-07-29T04:50:19;4.22;;;3.28;;
44989;SDS011;30723;51.206;3.326;2022-07-29T04:52:45;5.70;;;3.00;;
44989;SDS011;30723;51.206;3.326;2022-07-29T04:55:12;4.13;;;3.15;;
44989;SDS011;30723;51.206;3.326;2022-07-29T04:57:38;5.90;;;3.40;;
44989;SDS011;30723;51.206;3.326;2022-07-29T05:00:05;9.25;;;3.75;;
44989;SDS011;30723;51.206;3.326;2022-07-29T05:02:34;5.57;;;3.53;;
44989;SDS011;30723;51.206;3.326;2022-07-29T05:05:01;7.72;;;3.03;;
44989;SDS011;30723;51.206;3.326;2022-07-29T05:07:28;12.13;;;3.60;;
44989;SDS011;30723;51.206;3.326;2022-07-29T05:09:54;4.72;;;3.28;;
44989;SDS011;30723;51.206;3.326;2022-07-29T05:12:22;4.70;;;3.33;;
44989;SDS011;30723;51.206;3.326;2022-07-29T05:14:49;5.80;;;3.40;;
44989;SDS011;30723;51.206;3.326;2022-07-29T05:17:14;5.60;;;3.53;;
44989;SDS011;30723;51.206;3.326;2022-07-29T05:19:41;6.50;;;3.40;;
44989;SDS011;30723;51.206;3.326;2022-07-29T05:22:07;4.40;;;2.90;;
44989;SDS011;30723;51.206;3.326;2022-07-29T05:24:36;8.73;;;4.00;;
44989;SDS011;30723;51.206;3.326;2022-07-29T05:27:02;5.78;;;3.50;;
44989;SDS011;30723;51.206;3.326;2022-07-29T05:29:29;8.20;;;3.05;;
44989;SDS011;30723;51.206;3.326;2022-07-29T05:31:56;5.32;;;2.90;;
44989;SDS011;30723;51.206;3.326;2022-07-29T05:34:22;6.55;;;2.60;;
44989;SDS011;30723;51.206;3.326;2022-07-29T05:36:50;4.95;;;2.65;;
44989;SDS011;30723;51.206;3.326;2022-07-29T05:39:15;3.53;;;2.58;;
44989;SDS011;30723;51.206;3.326;2022-07-29T05:41:44;11.60;;;2.80;;
44989;SDS011;30723;51.206;3.326;2022-07-29T05:44:11;10.32;;;2.72;;
44989;SDS011;30723;51.206;3.326;2022-07-29T05:46:38;11.88;;;2.80;;
44989;SDS011;30723;51.206;3.326;2022-07-29T05:49:04;9.98;;;2.58;;
44989;SDS011;30723;51.206;3.326;2022-07-29T05:51:34;4.65;;;1.95;;
44989;SDS011;30723;51.206;3.326;2022-07-29T05:54:18;4.03;;;2.25;;
44989;SDS011;30723;51.206;3.326;2022-07-29T05:56:44;2.58;;;2.03;;
44989;SDS011;30723;51.206;3.326;2022-07-29T05:59:11;7.30;;;2.30;;
44989;SDS011;30723;51.206;3.326;2022-07-29T06:01:37;5.70;;;2.08;;
44989;SDS011;30723;51.206;3.326;2022-07-29T06:04:05;4.85;;;2.28;;
44989;SDS011;30723;51.206;3.326;2022-07-29T06:06:32;3.20;;;2.03;;
44989;SDS011;30723;51.206;3.326;2022-07-29T06:09:00;3.75;;;2.03;;
44989;SDS011;30723;51.206;3.326;2022-07-29T06:11:26;2.92;;;1.80;;
44989;SDS011;30723;51.206;3.326;2022-07-29T06:13:54;7.60;;;2.50;;
44989;SDS011;30723;51.206;3.326;2022-07-29T06:16:20;2.25;;;1.75;;
44989;SDS011;30723;51.206;3.326;2022-07-29T06:18:46;3.28;;;1.95;;
44989;SDS011;30723;51.206;3.326;2022-07-29T06:21:11;5.35;;;2.30;;
44989;SDS011;30723;51.206;3.326;2022-07-29T06:23:38;4.82;;;2.50;;
44989;SDS011;30723;51.206;3.326;2022-07-29T06:26:05;6.78;;;2.20;;
44989;SDS011;30723;51.206;3.326;2022-07-29T06:28:32;4.95;;;1.85;;
44989;SDS011;30723;51.206;3.326;2022-07-29T06:30:59;3.03;;;1.85;;
44989;SDS011;30723;51.206;3.326;2022-07-29T06:33:25;4.13;;;1.98;;
44989;SDS011;30723;51.206;3.326;2022-07-29T06:35:52;4.53;;;2.03;;
44989;SDS011;30723;51.206;3.326;2022-07-29T06:38:18;4.47;;;2.00;;
44989;SDS011;30723;51.206;3.326;2022-07-29T06:40:45;11.60;;;2.22;;
44989;SDS011;30723;51.206;3.326;2022-07-29T06:43:38;4.78;;;1.80;;
44989;SDS011;30723;51.206;3.326;2022-07-29T06:46:15;7.40;;;2.28;;
44989;SDS011;30723;51.206;3.326;2022-07-29T06:48:43;4.10;;;2.00;;
44989;SDS011;30723;51.206;3.326;2022-07-29T06:51:09;11.23;;;2.30;;
44989;SDS011;30723;51.206;3.326;2022-07-29T06:53:36;3.15;;;2.50;;
44989;SDS011;30723;51.206;3.326;2022-07-29T06:56:05;4.35;;;2.05;;
44989;SDS011;30723;51.206;3.326;2022-07-29T06:58:33;6.90;;;1.85;;
44989;SDS011;30723;51.206;3.326;2022-07-29T07:01:03;5.93;;;2.20;;
44989;SDS011;30723;51.206;3.326;2022-07-29T07:03:31;4.28;;;1.90;;
44989;SDS011;30723;51.206;3.326;2022-07-29T07:05:58;7.25;;;2.00;;
44989;SDS011;30723;51.206;3.326;2022-07-29T07:08:25;5.03;;;1.63;;
44989;SDS011;30723;51.206;3.326;2022-07-29T07:10:51;5.28;;;2.03;;
44989;SDS011;30723;51.206;3.326;2022-07-29T07:13:18;6.30;;;2.05;;
44989;SDS011;30723;51.206;3.326;2022-07-29T07:15:45;4.18;;;2.00;;
44989;SDS011;30723;51.206;3.326;2022-07-29T07:18:13;7.07;;;2.00;;
44989;SDS011;30723;51.206;3.326;2022-07-29T07:20:41;6.47;;;1.90;;
44989;SDS011;30723;51.206;3.326;2022-07-29T07:23:08;3.15;;;1.90;;
44989;SDS011;30723;51.206;3.326;2022-07-29T07:25:34;4.78;;;1.95;;
44989;SDS011;30723;51.206;3.326;2022-07-29T07:28:01;7.20;;;2.60;;
44989;SDS011;30723;51.206;3.326;2022-07-29T07:30:28;2.60;;;1.73;;
44989;SDS011;30723;51.206;3.326;2022-07-29T07:32:56;5.63;;;1.80;;
44989;SDS011;30723;51.206;3.326;2022-07-29T07:35:21;5.78;;;2.28;;
44989;SDS011;30723;51.206;3.326;2022-07-29T07:37:48;5.15;;;2.28;;
44989;SDS011;30723;51.206;3.326;2022-07-29T07:40:14;2.15;;;1.70;;
44989;SDS011;30723;51.206;3.326;2022-07-29T07:42:41;3.67;;;2.05;;
44989;SDS011;30723;51.206;3.326;2022-07-29T07:45:07;3.53;;;1.92;;
44989;SDS011;30723;51.206;3.326;2022-07-29T07:47:36;2.97;;;1.67;;
44989;SDS011;30723;51.206;3.326;2022-07-29T07:50:04;8.63;;;2.10;;
44989;SDS011;30723;51.206;3.326;2022-07-29T07:52:33;4.72;;;1.75;;
44989;SDS011;30723;51.206;3.326;2022-07-29T07:55:11;5.88;;;2.30;;
44989;SDS011;30723;51.206;3.326;2022-07-29T07:57:36;5.35;;;2.20;;
44989;SDS011;30723;51.206;3.326;2022-07-29T08:00:03;5.55;;;1.98;;
44989;SDS011;30723;51.206;3.326;2022-07-29T08:02:29;2.67;;;1.63;;
44989;SDS011;30723;51.206;3.326;2022-07-29T08:04:55;6.13;;;1.77;;
44989;SDS011;30723;51.206;3.326;2022-07-29T08:07:22;4.38;;;1.70;;
44989;SDS011;30723;51.206;3.326;2022-07-29T08:09:47;19.02;;;2.30;;
44989;SDS011;30723;51.206;3.326;2022-07-29T08:12:13;4.93;;;1.73;;
44989;SDS011;30723;51.206;3.326;2022-07-29T08:14:39;9.25;;;1.95;;
44989;SDS011;30723;51.206;3.326;2022-07-29T08:17:04;4.85;;;1.63;;
44989;SDS011;30723;51.206;3.326;2022-07-29T08:19:30;2.85;;;1.60;;
44989;SDS011;30723;51.206;3.326;2022-07-29T08:21:57;7.60;;;1.80;;
44989;SDS011;30723;51.206;3.326;2022-07-29T08:24:24;3.50;;;1.92;;
44989;SDS011;30723;51.206;3.326;2022-07-29T08:27:11;7.25;;;1.90;;
44989;SDS011;30723;51.206;3.326;2022-07-29T08:29:38;4.70;;;1.85;;
44989;SDS011;30723;51.206;3.326;2022-07-29T08:32:05;4.70;;;1.90;;
44989;SDS011;30723;51.206;3.326;2022-07-29T08:34:32;3.53;;;1.60;;
44989;SDS011;30723;51.206;3.326;2022-07-29T08:36:58;8.00;;;1.73;;
44989;SDS011;30723;51.206;3.326;2022-07-29T08:39:24;4.25;;;1.88;;
44989;SDS011;30723;51.206;3.326;2022-07-29T08:41:51;3.25;;;1.75;;
44989;SDS011;30723;51.206;3.326;2022-07-29T08:44:19;5.05;;;1.58;;
44989;SDS011;30723;51.206;3.326;2022-07-29T08:46:46;6.40;;;1.77;;
44989;SDS011;30723;51.206;3.326;2022-07-29T08:49:14;6.47;;;1.80;;
44989;SDS011;30723;51.206;3.326;2022-07-29T08:51:42;4.68;;;1.88;;
44989;SDS011;30723;51.206;3.326;2022-07-29T08:54:09;7.68;;;2.45;;
44989;SDS011;30723;51.206;3.326;2022-07-29T08:56:41;8.55;;;2.10;;
44989;SDS011;30723;51.206;3.326;2022-07-29T08:59:07;4.47;;;1.98;;
44989;SDS011;30723;51.206;3.326;2022-07-29T09:01:34;6.85;;;1.73;;
44989;SDS011;30723;51.206;3.326;2022-07-29T09:04:05;7.18;;;2.00;;
44989;SDS011;30723;51.206;3.326;2022-07-29T09:06:36;3.55;;;1.67;;
44989;SDS011;30723;51.206;3.326;2022-07-29T09:09:04;9.43;;;1.73;;
44989;SDS011;30723;51.206;3.326;2022-07-29T09:11:32;3.47;;;1.20;;
44989;SDS011;30723;51.206;3.326;2022-07-29T09:13:59;2.58;;;1.38;;
44989;SDS011;30723;51.206;3.326;2022-07-29T09:16:25;4.90;;;1.45;;
44989;SDS011;30723;51.206;3.326;2022-07-29T09:19:42;3.95;;;1.55;;
44989;SDS011;30723;51.206;3.326;2022-07-29T09:22:08;5.95;;;1.50;;
44989;SDS011;30723;51.206;3.326;2022-07-29T09:27:24;7.93;;;1.70;;
44989;SDS011;30723;51.206;3.326;2022-07-29T09:32:31;7.63;;;1.98;;
44989;SDS011;30723;51.206;3.326;2022-07-29T09:37:47;9.98;;;1.88;;
44989;SDS011;30723;51.206;3.326;2022-07-29T09:40:16;5.70;;;1.83;;
44989;SDS011;30723;51.206;3.326;2022-07-29T09:42:49;5.78;;;1.48;;
44989;SDS011;30723;51.206;3.326;2022-07-29T09:45:29;5.32;;;1.42;;
44989;SDS011;30723;51.206;3.326;2022-07-29T09:47:56;11.10;;;2.17;;
44989;SDS011;30723;51.206;3.326;2022-07-29T09:50:37;5.70;;;1.90;;
44989;SDS011;30723;51.206;3.326;2022-07-29T09:53:08;2.60;;;1.40;;
44989;SDS011;30723;51.206;3.326;2022-07-29T09:55:50;6.85;;;1.55;;
44989;SDS011;30723;51.206;3.326;2022-07-29T09:58:18;10.35;;;1.27;;
44989;SDS011;30723;51.206;3.326;2022-07-29T10:00:48;2.75;;;1.40;;
44989;SDS011;30723;51.206;3.326;2022-07-29T10:03:16;5.88;;;1.38;;
44989;SDS011;30723;51.206;3.326;2022-07-29T10:05:43;7.15;;;1.50;;
44989;SDS011;30723;51.206;3.326;2022-07-29T10:08:10;6.80;;;1.67;;
44989;SDS011;30723;51.206;3.326;2022-07-29T10:10:41;4.30;;;1.20;;
44989;SDS011;30723;51.206;3.326;2022-07-29T10:13:14;5.18;;;1.48;;
44989;SDS011;30723;51.206;3.326;2022-07-29T10:15:42;4.05;;;1.30;;
44989;SDS011;30723;51.206;3.326;2022-07-29T10:18:14;3.42;;;1.35;;
44989;SDS011;30723;51.206;3.326;2022-07-29T10:20:45;5.88;;;2.00;;
44989;SDS011;30723;51.206;3.326;2022-07-29T10:23:11;6.10;;;1.77;;
44989;SDS011;30723;51.206;3.326;2022-07-29T10:25:38;6.35;;;1.45;;
44989;SDS011;30723;51.206;3.326;2022-07-29T10:28:05;9.40;;;1.38;;
44989;SDS011;30723;51.206;3.326;2022-07-29T10:30:31;4.22;;;2.08;;
44989;SDS011;30723;51.206;3.326;2022-07-29T10:44:45;5.50;;;1.60;;
44989;SDS011;30723;51.206;3.326;2022-07-29T10:47:22;2.95;;;1.40;;
44989;SDS011;30723;51.206;3.326;2022-07-29T10:50:04;7.65;;;1.67;;
44989;SDS011;30723;51.206;3.326;2022-07-29T10:52:51;3.85;;;1.25;;
44989;SDS011;30723;51.206;3.326;2022-07-29T10:55:33;3.10;;;1.60;;
44989;SDS011;30723;51.206;3.326;2022-07-29T10:58:11;7.97;;;1.77;;
44989;SDS011;30723;51.206;3.326;2022-07-29T11:00:38;5.60;;;1.63;;
44989;SDS011;30723;51.206;3.326;2022-07-29T11:03:05;4.30;;;1.60;;
44989;SDS011;30723;51.206;3.326;2022-07-29T11:05:30;7.55;;;1.58;;
44989;SDS011;30723;51.206;3.326;2022-07-29T11:08:18;4.57;;;1.88;;
44989;SDS011;30723;51.206;3.326;2022-07-29T11:10:48;7.28;;;1.85;;
44989;SDS011;30723;51.206;3.326;2022-07-29T11:16:07;7.85;;;2.00;;
44989;SDS011;30723;51.206;3.326;2022-07-29T11:18:32;4.30;;;1.75;;
44989;SDS011;30723;51.206;3.326;2022-07-29T11:20:58;7.32;;;1.60;;
44989;SDS011;30723;51.206;3.326;2022-07-29T11:23:28;5.10;;;1.75;;
44989;SDS011;30723;51.206;3.326;2022-07-29T11:28:52;5.07;;;1.90;;
44989;SDS011;30723;51.206;3.326;2022-07-29T11:47:35;7.20;;;1.80;;
44989;SDS011;30723;51.206;3.326;2022-07-29T11:50:06;5.82;;;1.50;;
44989;SDS011;30723;51.206;3.326;2022-07-29T11:52:38;6.32;;;1.88;;
44989;SDS011;30723;51.206;3.326;2022-07-29T11:55:10;3.53;;;1.20;;
44989;SDS011;30723;51.206;3.326;2022-07-29T11:57:47;2.78;;;1.33;;
44989;SDS011;30723;51.206;3.326;2022-07-29T12:00:28;7.57;;;1.65;;
44989;SDS011;30723;51.206;3.326;2022-07-29T12:02:57;4.03;;;1.58;;
44989;SDS011;30723;51.206;3.326;2022-07-29T12:05:32;7.15;;;1.88;;
44989;SDS011;30723;51.206;3.326;2022-07-29T12:08:05;8.20;;;1.95;;
44989;SDS011;30723;51.206;3.326;2022-07-29T12:10:31;2.95;;;1.60;;
44989;SDS011;30723;51.206;3.326;2022-07-29T12:12:58;6.95;;;2.20;;
44989;SDS011;30723;51.206;3.326;2022-07-29T12:15:24;7.18;;;1.80;;
44989;SDS011;30723;51.206;3.326;2022-07-29T12:17:51;4.50;;;1.70;;
44989;SDS011;30723;51.206;3.326;2022-07-29T12:20:27;3.95;;;1.83;;
44989;SDS011;30723;51.206;3.326;2022-07-29T12:22:54;6.70;;;1.88;;
44989;SDS011;30723;51.206;3.326;2022-07-29T12:25:21;9.40;;;1.70;;
44989;SDS011;30723;51.206;3.326;2022-07-29T12:28:01;8.27;;;1.70;;
44989;SDS011;30723;51.206;3.326;2022-07-29T12:30:36;2.25;;;1.20;;
44989;SDS011;30723;51.206;3.326;2022-07-29T12:33:11;3.47;;;1.33;;
44989;SDS011;30723;51.206;3.326;2022-07-29T12:35:39;5.15;;;1.70;;
44989;SDS011;30723;51.206;3.326;2022-07-29T12:38:06;3.25;;;1.40;;
44989;SDS011;30723;51.206;3.326;2022-07-29T12:40:35;6.28;;;1.70;;
44989;SDS011;30723;51.206;3.326;2022-07-29T12:43:11;7.15;;;1.80;;
44989;SDS011;30723;51.206;3.326;2022-07-29T12:45:43;5.90;;;1.55;;
44989;SDS011;30723;51.206;3.326;2022-07-29T12:48:15;5.43;;;1.60;;
44989;SDS011;30723;51.206;3.326;2022-07-29T12:50:58;4.32;;;1.60;;
44989;SDS011;30723;51.206;3.326;2022-07-29T12:53:25;4.93;;;1.73;;
44989;SDS011;30723;51.206;3.326;2022-07-29T12:55:52;8.23;;;1.75;;
44989;SDS011;30723;51.206;3.326;2022-07-29T12:58:29;4.65;;;2.15;;
44989;SDS011;30723;51.206;3.326;2022-07-29T13:01:15;7.75;;;1.65;;
44989;SDS011;30723;51.206;3.326;2022-07-29T13:03:43;3.10;;;1.55;;
44989;SDS011;30723;51.206;3.326;2022-07-29T13:06:27;8.48;;;2.17;;
44989;SDS011;30723;51.206;3.326;2022-07-29T13:11:45;5.47;;;1.90;;
44989;SDS011;30723;51.206;3.326;2022-07-29T13:14:37;2.17;;;1.80;;
44989;SDS011;30723;51.206;3.326;2022-07-29T13:17:12;4.30;;;1.52;;
44989;SDS011;30723;51.206;3.326;2022-07-29T13:19:49;6.82;;;1.60;;
44989;SDS011;30723;51.206;3.326;2022-07-29T13:22:29;9.02;;;1.70;;
44989;SDS011;30723;51.206;3.326;2022-07-29T13:27:29;3.28;;;1.63;;
44989;SDS011;30723;51.206;3.326;2022-07-29T13:29:57;6.30;;;1.67;;
44989;SDS011;30723;51.206;3.326;2022-07-29T13:32:26;7.82;;;1.60;;
44989;SDS011;30723;51.206;3.326;2022-07-29T13:34:54;4.15;;;1.40;;
44989;SDS011;30723;51.206;3.326;2022-07-29T13:37:22;4.10;;;1.48;;
44989;SDS011;30723;51.206;3.326;2022-07-29T13:39:48;3.30;;;1.58;;
44989;SDS011;30723;51.206;3.326;2022-07-29T13:42:15;8.73;;;1.73;;
44989;SDS011;30723;51.206;3.326;2022-07-29T13:44:42;5.65;;;1.90;;
44989;SDS011;30723;51.206;3.326;2022-07-29T13:47:09;4.25;;;1.60;;
44989;SDS011;30723;51.206;3.326;2022-07-29T13:49:36;5.78;;;1.50;;
44989;SDS011;30723;51.206;3.326;2022-07-29T13:52:02;6.38;;;2.00;;
44989;SDS011;30723;51.206;3.326;2022-07-29T13:54:32;4.28;;;1.52;;
44989;SDS011;30723;51.206;3.326;2022-07-29T13:56:58;5.88;;;1.80;;
44989;SDS011;30723;51.206;3.326;2022-07-29T13:59:24;4.93;;;1.67;;
44989;SDS011;30723;51.206;3.326;2022-07-29T14:01:51;5.50;;;1.90;;
44989;SDS011;30723;51.206;3.326;2022-07-29T14:04:17;3.42;;;2.10;;
44989;SDS011;30723;51.206;3.326;2022-07-29T14:06:44;6.30;;;1.80;;
44989;SDS011;30723;51.206;3.326;2022-07-29T14:09:10;7.53;;;2.00;;
44989;SDS011;30723;51.206;3.326;2022-07-29T14:11:36;9.32;;;2.05;;
44989;SDS011;30723;51.206;3.326;2022-07-29T14:14:05;4.35;;;1.50;;
44989;SDS011;30723;51.206;3.326;2022-07-29T14:16:32;11.27;;;1.90;;
44989;SDS011;30723;51.206;3.326;2022-07-29T14:18:59;8.77;;;1.80;;
44989;SDS011;30723;51.206;3.326;2022-07-29T14:21:24;4.78;;;1.73;;
44989;SDS011;30723;51.206;3.326;2022-07-29T14:23:52;3.00;;;2.08;;
44989;SDS011;30723;51.206;3.326;2022-07-29T14:26:20;6.13;;;2.20;;
44989;SDS011;30723;51.206;3.326;2022-07-29T14:28:47;5.78;;;2.00;;
44989;SDS011;30723;51.206;3.326;2022-07-29T14:31:14;7.35;;;2.30;;
44989;SDS011;30723;51.206;3.326;2022-07-29T14:33:40;6.55;;;2.72;;
44989;SDS011;30723;51.206;3.326;2022-07-29T14:36:07;6.30;;;2.42;;
44989;SDS011;30723;51.206;3.326;2022-07-29T14:38:34;6.05;;;2.92;;
44989;SDS011;30723;51.206;3.326;2022-07-29T14:41:01;8.15;;;2.47;;
44989;SDS011;30723;51.206;3.326;2022-07-29T14:43:26;7.03;;;2.13;;
44989;SDS011;30723;51.206;3.326;2022-07-29T14:45:52;7.55;;;2.50;;
44989;SDS011;30723;51.206;3.326;2022-07-29T14:48:18;6.35;;;2.47;;
44989;SDS011;30723;51.206;3.326;2022-07-29T14:50:45;13.05;;;2.28;;
44989;SDS011;30723;51.206;3.326;2022-07-29T14:53:11;7.30;;;2.00;;
44989;SDS011;30723;51.206;3.326;2022-07-29T14:55:38;5.47;;;1.80;;
44989;SDS011;30723;51.206;3.326;2022-07-29T14:58:05;4.03;;;1.80;;
44989;SDS011;30723;51.206;3.326;2022-07-29T15:00:31;4.10;;;1.45;;
44989;SDS011;30723;51.206;3.326;2022-07-29T15:03:01;9.75;;;2.03;;
44989;SDS011;30723;51.206;3.326;2022-07-29T15:05:45;6.18;;;2.28;;
44989;SDS011;30723;51.206;3.326;2022-07-29T15:08:11;5.22;;;2.53;;
44989;SDS011;30723;51.206;3.326;2022-07-29T15:10:38;8.20;;;2.15;;
44989;SDS011;30723;51.206;3.326;2022-07-29T15:13:05;5.10;;;2.33;;
44989;SDS011;30723;51.206;3.326;2022-07-29T15:15:31;2.70;;;1.90;;
44989;SDS011;30723;51.206;3.326;2022-07-29T15:17:57;5.15;;;2.28;;
44989;SDS011;30723;51.206;3.326;2022-07-29T15:20:23;6.70;;;2.03;;
44989;SDS011;30723;51.206;3.326;2022-07-29T15:22:52;3.85;;;1.63;;
44989;SDS011;30723;51.206;3.326;2022-07-29T15:25:21;3.58;;;1.73;;
44989;SDS011;30723;51.206;3.326;2022-07-29T15:27:47;6.65;;;2.03;;
44989;SDS011;30723;51.206;3.326;2022-07-29T15:30:13;8.02;;;1.80;;
44989;SDS011;30723;51.206;3.326;2022-07-29T15:32:42;6.32;;;2.00;;
44989;SDS011;30723;51.206;3.326;2022-07-29T15:35:09;11.43;;;2.00;;
44989;SDS011;30723;51.206;3.326;2022-07-29T15:37:37;8.02;;;2.05;;
44989;SDS011;30723;51.206;3.326;2022-07-29T15:40:05;6.10;;;2.08;;
44989;SDS011;30723;51.206;3.326;2022-07-29T15:42:34;5.85;;;1.88;;
44989;SDS011;30723;51.206;3.326;2022-07-29T15:45:02;8.77;;;1.98;;
44989;SDS011;30723;51.206;3.326;2022-07-29T15:47:30;3.45;;;1.55;;
44989;SDS011;30723;51.206;3.326;2022-07-29T15:49:57;8.30;;;1.73;;
44989;SDS011;30723;51.206;3.326;2022-07-29T15:52:23;5.50;;;1.67;;
44989;SDS011;30723;51.206;3.326;2022-07-29T15:54:50;7.05;;;1.80;;
44989;SDS011;30723;51.206;3.326;2022-07-29T15:57:18;5.57;;;2.03;;
44989;SDS011;30723;51.206;3.326;2022-07-29T15:59:44;6.28;;;2.20;;
44989;SDS011;30723;51.206;3.326;2022-07-29T16:02:11;6.10;;;1.83;;
44989;SDS011;30723;51.206;3.326;2022-07-29T16:04:38;10.85;;;2.42;;
44989;SDS011;30723;51.206;3.326;2022-07-29T16:07:11;5.32;;;2.10;;